KHFD/HFD METAR and TAF weather

Enter ICAO airport designator
Station Type Date Time Source
KHFD METAR 2020/11/25 22:53 UTC NOAA

KHFD 252253Z 00000KT 10SM FEW060 BKN090 06/00 A3025 RMK AO2 RAE03 SLP244 P0000 T00560000


Station Type Date Time Source
KHFD Decoded METAR 2020/11/25 22:53 UTC NOAA

HARTFORD-BRAINARD AIRPORT, CT, United States (KHFD) 41-44N 072-39W 4M
Nov 25, 2020 - 05:53 PM EST / 2020.11.25 2253 UTC
Wind: Calm:0
Visibility: 10 mile(s):0
Sky conditions: mostly cloudy
Precipitation last hour: A trace
Temperature: 42.1 F (5.6 C)
Dew Point: 32.0 F (0.0 C)
Relative Humidity: 67%
Pressure (altimeter): 30.25 in. Hg (1024 hPa)
ob: KHFD 252253Z 00000KT 10SM FEW060 BKN090 06/00 A3025 RMK AO2 RAE03 SLP244 P0000 T00560000
cycle: 23

Station Type Date Time Source
KHFD TAF UTC NOAA

Error!

Example: see airport list